sensor_id;sensor_type;location;lat;lon;timestamp;temperature;humidity
1175;DHT22;576;48.418;10.074;2023-07-22T00:00:03;27.50;56.70
1175;DHT22;576;48.418;10.074;2023-07-22T00:02:34;27.50;56.70
1175;DHT22;576;48.418;10.074;2023-07-22T00:05:03;27.50;56.70
1175;DHT22;576;48.418;10.074;2023-07-22T00:07:31;27.50;56.70
1175;DHT22;576;48.418;10.074;2023-07-22T00:10:00;27.50;56.60
1175;DHT22;576;48.418;10.074;2023-07-22T00:12:28;27.50;56.60
1175;DHT22;576;48.418;10.074;2023-07-22T00:14:57;27.50;56.60
1175;DHT22;576;48.418;10.074;2023-07-22T00:17:26;27.50;56.60
1175;DHT22;576;48.418;10.074;2023-07-22T00:19:55;27.40;56.60
1175;DHT22;576;48.418;10.074;2023-07-22T00:22:23;27.40;56.70
1175;DHT22;576;48.418;10.074;2023-07-22T00:24:53;27.40;56.60
1175;DHT22;576;48.418;10.074;2023-07-22T00:27:21;27.40;56.60
1175;DHT22;576;48.418;10.074;2023-07-22T00:29:50;27.40;56.60
1175;DHT22;576;48.418;10.074;2023-07-22T00:32:18;27.40;56.60
1175;DHT22;576;48.418;10.074;2023-07-22T00:34:46;27.40;56.60
1175;DHT22;576;48.418;10.074;2023-07-22T00:37:16;27.40;56.60
1175;DHT22;576;48.418;10.074;2023-07-22T00:39:44;27.40;56.60
1175;DHT22;576;48.418;10.074;2023-07-22T00:42:13;27.40;56.60
1175;DHT22;576;48.418;10.074;2023-07-22T00:44:41;27.40;56.60
1175;DHT22;576;48.418;10.074;2023-07-22T00:47:09;27.40;56.70
1175;DHT22;576;48.418;10.074;2023-07-22T00:49:38;27.40;56.60
1175;DHT22;576;48.418;10.074;2023-07-22T00:52:07;27.40;56.60
1175;DHT22;576;48.418;10.074;2023-07-22T00:54:37;27.40;56.60
1175;DHT22;576;48.418;10.074;2023-07-22T00:57:06;27.30;56.60
1175;DHT22;576;48.418;10.074;2023-07-22T00:59:35;27.30;56.70
1175;DHT22;576;48.418;10.074;2023-07-22T01:02:04;27.30;56.70
1175;DHT22;576;48.418;10.074;2023-07-22T01:04:34;27.30;56.70
1175;DHT22;576;48.418;10.074;2023-07-22T01:07:04;27.30;56.70
1175;DHT22;576;48.418;10.074;2023-07-22T01:09:36;27.30;56.70
1175;DHT22;576;48.418;10.074;2023-07-22T01:12:05;27.30;56.70
1175;DHT22;576;48.418;10.074;2023-07-22T01:14:34;27.30;56.70
1175;DHT22;576;48.418;10.074;2023-07-22T01:17:03;27.30;56.70
1175;DHT22;576;48.418;10.074;2023-07-22T01:19:33;27.30;56.70
1175;DHT22;576;48.418;10.074;2023-07-22T01:22:02;27.30;56.70
1175;DHT22;576;48.418;10.074;2023-07-22T01:24:32;27.30;56.70
1175;DHT22;576;48.418;10.074;2023-07-22T01:27:01;27.30;56.70
1175;DHT22;576;48.418;10.074;2023-07-22T01:29:31;27.30;56.70
1175;DHT22;576;48.418;10.074;2023-07-22T01:31:59;27.20;56.70
1175;DHT22;576;48.418;10.074;2023-07-22T01:34:27;27.20;56.70
1175;DHT22;576;48.418;10.074;2023-07-22T01:36:56;27.20;56.70
1175;DHT22;576;48.418;10.074;2023-07-22T01:39:25;27.20;56.70
1175;DHT22;576;48.418;10.074;2023-07-22T01:41:55;27.20;56.70
1175;DHT22;576;48.418;10.074;2023-07-22T01:44:24;27.20;56.70
1175;DHT22;576;48.418;10.074;2023-07-22T01:46:52;27.20;56.70
1175;DHT22;576;48.418;10.074;2023-07-22T01:49:20;27.20;56.70
1175;DHT22;576;48.418;10.074;2023-07-22T01:51:51;27.20;56.60
1175;DHT22;576;48.418;10.074;2023-07-22T01:54:19;27.20;56.70
1175;DHT22;576;48.418;10.074;2023-07-22T01:56:47;27.20;56.60
1175;DHT22;576;48.418;10.074;2023-07-22T01:59:17;27.20;56.60
1175;DHT22;576;48.418;10.074;2023-07-22T02:01:45;27.20;56.60
1175;DHT22;576;48.418;10.074;2023-07-22T02:04:14;27.20;56.70
1175;DHT22;576;48.418;10.074;2023-07-22T02:06:42;27.10;56.60
1175;DHT22;576;48.418;10.074;2023-07-22T02:09:11;27.10;56.60
1175;DHT22;576;48.418;10.074;2023-07-22T02:11:40;27.10;56.60
1175;DHT22;576;48.418;10.074;2023-07-22T02:14:09;27.10;56.60
1175;DHT22;576;48.418;10.074;2023-07-22T02:16:38;27.10;56.60
1175;DHT22;576;48.418;10.074;2023-07-22T02:19:07;27.10;56.60
1175;DHT22;576;48.418;10.074;2023-07-22T02:21:40;27.10;56.60
1175;DHT22;576;48.418;10.074;2023-07-22T02:24:08;27.10;56.50
1175;DHT22;576;48.418;10.074;2023-07-22T02:26:36;27.10;56.50
1175;DHT22;576;48.418;10.074;2023-07-22T02:29:04;27.10;56.50
1175;DHT22;576;48.418;10.074;2023-07-22T02:31:33;27.10;56.60
1175;DHT22;576;48.418;10.074;2023-07-22T02:34:02;27.00;56.60
1175;DHT22;576;48.418;10.074;2023-07-22T02:36:30;27.10;56.50
1175;DHT22;576;48.418;10.074;2023-07-22T02:38:59;27.00;56.50
1175;DHT22;576;48.418;10.074;2023-07-22T02:41:27;27.00;56.60
1175;DHT22;576;48.418;10.074;2023-07-22T02:43:55;27.00;56.60
1175;DHT22;576;48.418;10.074;2023-07-22T02:46:24;27.00;56.60
1175;DHT22;576;48.418;10.074;2023-07-22T02:48:53;27.00;56.60
1175;DHT22;576;48.418;10.074;2023-07-22T02:51:23;27.00;56.60
1175;DHT22;576;48.418;10.074;2023-07-22T02:53:51;27.00;56.60
1175;DHT22;576;48.418;10.074;2023-07-22T02:56:19;27.00;56.60
1175;DHT22;576;48.418;10.074;2023-07-22T02:58:47;27.00;56.70
1175;DHT22;576;48.418;10.074;2023-07-22T03:01:16;27.00;56.70
1175;DHT22;576;48.418;10.074;2023-07-22T03:03:46;27.00;56.60
1175;DHT22;576;48.418;10.074;2023-07-22T03:06:14;27.00;56.60
1175;DHT22;576;48.418;10.074;2023-07-22T03:08:43;27.00;56.70
1175;DHT22;576;48.418;10.074;2023-07-22T03:11:12;27.00;56.60
1175;DHT22;576;48.418;10.074;2023-07-22T03:13:40;27.00;56.60
1175;DHT22;576;48.418;10.074;2023-07-22T03:16:09;26.90;56.60
1175;DHT22;576;48.418;10.074;2023-07-22T03:18:37;26.90;56.60
1175;DHT22;576;48.418;10.074;2023-07-22T03:21:06;26.90;56.60
1175;DHT22;576;48.418;10.074;2023-07-22T03:23:35;26.90;56.60
1175;DHT22;576;48.418;10.074;2023-07-22T03:26:05;26.90;56.60
1175;DHT22;576;48.418;10.074;2023-07-22T03:28:33;26.90;56.60
1175;DHT22;576;48.418;10.074;2023-07-22T03:31:02;26.90;56.60
1175;DHT22;576;48.418;10.074;2023-07-22T03:33:31;26.90;56.60
1175;DHT22;576;48.418;10.074;2023-07-22T03:35:59;26.90;56.60
1175;DHT22;576;48.418;10.074;2023-07-22T03:38:28;26.90;56.60
1175;DHT22;576;48.418;10.074;2023-07-22T03:40:56;26.90;56.60
1175;DHT22;576;48.418;10.074;2023-07-22T03:43:25;26.90;56.60
1175;DHT22;576;48.418;10.074;2023-07-22T03:45:54;26.90;56.60
1175;DHT22;576;48.418;10.074;2023-07-22T03:48:22;26.90;56.60
1175;DHT22;576;48.418;10.074;2023-07-22T03:50:50;26.90;56.60
1175;DHT22;576;48.418;10.074;2023-07-22T03:53:31;26.90;56.60
1175;DHT22;576;48.418;10.074;2023-07-22T03:55:59;26.90;56.60
1175;DHT22;576;48.418;10.074;2023-07-22T03:58:29;26.90;56.60
1175;DHT22;576;48.418;10.074;2023-07-22T04:00:57;26.90;56.60
1175;DHT22;576;48.418;10.074;2023-07-22T04:03:25;26.80;56.60
1175;DHT22;576;48.418;10.074;2023-07-22T04:05:54;26.80;56.60
1175;DHT22;576;48.418;10.074;2023-07-22T04:08:23;26.80;56.60
1175;DHT22;576;48.418;10.074;2023-07-22T04:10:52;26.80;56.60
1175;DHT22;576;48.418;10.074;2023-07-22T04:13:20;26.80;56.60
1175;DHT22;576;48.418;10.074;2023-07-22T04:15:50;26.80;56.60
1175;DHT22;576;48.418;10.074;2023-07-22T04:18:20;26.80;56.60
1175;DHT22;576;48.418;10.074;2023-07-22T04:20:51;26.80;56.50
1175;DHT22;576;48.418;10.074;2023-07-22T04:23:23;26.80;56.60
1175;DHT22;576;48.418;10.074;2023-07-22T04:25:51;26.80;56.50
1175;DHT22;576;48.418;10.074;2023-07-22T04:28:19;26.80;56.60
1175;DHT22;576;48.418;10.074;2023-07-22T04:30:57;26.80;56.60
1175;DHT22;576;48.418;10.074;2023-07-22T04:33:25;26.80;56.60
1175;DHT22;576;48.418;10.074;2023-07-22T04:35:57;26.80;56.60
1175;DHT22;576;48.418;10.074;2023-07-22T04:38:25;26.80;56.60
1175;DHT22;576;48.418;10.074;2023-07-22T04:40:54;26.80;56.50
1175;DHT22;576;48.418;10.074;2023-07-22T04:43:22;26.80;56.50
1175;DHT22;576;48.418;10.074;2023-07-22T04:45:51;26.80;56.50
1175;DHT22;576;48.418;10.074;2023-07-22T04:48:21;26.80;56.50
1175;DHT22;576;48.418;10.074;2023-07-22T04:50:50;26.80;56.50
1175;DHT22;576;48.418;10.074;2023-07-22T04:53:18;26.80;56.50
1175;DHT22;576;48.418;10.074;2023-07-22T04:55:47;26.80;56.50
1175;DHT22;576;48.418;10.074;2023-07-22T04:58:15;26.80;56.50
1175;DHT22;576;48.418;10.074;2023-07-22T05:00:43;26.80;56.50
1175;DHT22;576;48.418;10.074;2023-07-22T05:03:11;26.80;56.50
1175;DHT22;576;48.418;10.074;2023-07-22T05:05:42;26.80;56.50
1175;DHT22;576;48.418;10.074;2023-07-22T05:08:11;26.80;56.50
1175;DHT22;576;48.418;10.074;2023-07-22T05:10:39;26.80;56.50
1175;DHT22;576;48.418;10.074;2023-07-22T05:13:07;26.80;56.50
1175;DHT22;576;48.418;10.074;2023-07-22T05:15:36;26.80;56.50
1175;DHT22;576;48.418;10.074;2023-07-22T05:18:04;26.80;56.50
1175;DHT22;576;48.418;10.074;2023-07-22T05:20:32;26.80;56.50
1175;DHT22;576;48.418;10.074;2023-07-22T05:23:02;26.80;56.50
1175;DHT22;576;48.418;10.074;2023-07-22T05:25:30;26.80;56.50
1175;DHT22;576;48.418;10.074;2023-07-22T05:27:58;26.90;56.50
1175;DHT22;576;48.418;10.074;2023-07-22T05:30:26;26.90;56.50
1175;DHT22;576;48.418;10.074;2023-07-22T05:33:02;26.90;56.50
1175;DHT22;576;48.418;10.074;2023-07-22T05:35:30;26.90;56.50
1175;DHT22;576;48.418;10.074;2023-07-22T05:37:58;26.90;56.60
1175;DHT22;576;48.418;10.074;2023-07-22T05:40:28;26.90;56.60
1175;DHT22;576;48.418;10.074;2023-07-22T05:42:57;26.90;56.50
1175;DHT22;576;48.418;10.074;2023-07-22T05:45:25;26.90;56.60
1175;DHT22;576;48.418;10.074;2023-07-22T05:47:53;26.90;56.60
1175;DHT22;576;48.418;10.074;2023-07-22T05:50:21;26.90;56.70
1175;DHT22;576;48.418;10.074;2023-07-22T05:52:50;26.90;56.70
1175;DHT22;576;48.418;10.074;2023-07-22T05:55:18;26.90;56.70
1175;DHT22;576;48.418;10.074;2023-07-22T05:57:48;26.90;56.60
1175;DHT22;576;48.418;10.074;2023-07-22T06:00:16;26.90;56.60
1175;DHT22;576;48.418;10.074;2023-07-22T06:02:44;26.90;56.80
1175;DHT22;576;48.418;10.074;2023-07-22T06:05:12;26.90;56.80
1175;DHT22;576;48.418;10.074;2023-07-22T06:07:40;26.90;56.70
1175;DHT22;576;48.418;10.074;2023-07-22T06:10:09;26.90;56.60
1175;DHT22;576;48.418;10.074;2023-07-22T06:12:38;26.90;56.70
1175;DHT22;576;48.418;10.074;2023-07-22T06:15:10;26.90;56.70
1175;DHT22;576;48.418;10.074;2023-07-22T06:17:38;26.90;56.70
1175;DHT22;576;48.418;10.074;2023-07-22T06:20:07;26.90;56.60
1175;DHT22;576;48.418;10.074;2023-07-22T06:22:36;27.00;56.70
1175;DHT22;576;48.418;10.074;2023-07-22T06:25:05;27.00;56.80
1175;DHT22;576;48.418;10.074;2023-07-22T06:27:33;27.00;56.60
1175;DHT22;576;48.418;10.074;2023-07-22T06:30:02;27.00;56.70
1175;DHT22;576;48.418;10.074;2023-07-22T06:32:32;27.00;56.90
1175;DHT22;576;48.418;10.074;2023-07-22T06:35:00;27.00;56.90
1175;DHT22;576;48.418;10.074;2023-07-22T06:37:29;27.00;56.90
1175;DHT22;576;48.418;10.074;2023-07-22T06:39:57;27.00;56.90
1175;DHT22;576;48.418;10.074;2023-07-22T06:42:25;27.00;56.90
1175;DHT22;576;48.418;10.074;2023-07-22T06:44:54;27.00;57.00
1175;DHT22;576;48.418;10.074;2023-07-22T06:47:22;26.90;57.00
1175;DHT22;576;48.418;10.074;2023-07-22T06:49:51;27.00;56.90
1175;DHT22;576;48.418;10.074;2023-07-22T06:52:20;27.00;56.90
1175;DHT22;576;48.418;10.074;2023-07-22T06:54:48;27.00;56.90
1175;DHT22;576;48.418;10.074;2023-07-22T06:57:16;27.00;56.90
1175;DHT22;576;48.418;10.074;2023-07-22T06:59:45;27.00;56.90
1175;DHT22;576;48.418;10.074;2023-07-22T07:02:13;27.00;56.90
1175;DHT22;576;48.418;10.074;2023-07-22T07:04:41;27.00;56.90
1175;DHT22;576;48.418;10.074;2023-07-22T07:07:11;27.00;57.00
1175;DHT22;576;48.418;10.074;2023-07-22T07:09:39;27.00;57.00
1175;DHT22;576;48.418;10.074;2023-07-22T07:12:08;27.00;57.00
1175;DHT22;576;48.418;10.074;2023-07-22T07:14:36;27.00;56.80
1175;DHT22;576;48.418;10.074;2023-07-22T07:17:05;27.00;57.00
1175;DHT22;576;48.418;10.074;2023-07-22T07:19:33;27.00;56.90
1175;DHT22;576;48.418;10.074;2023-07-22T07:22:01;27.00;56.80
1175;DHT22;576;48.418;10.074;2023-07-22T07:24:31;27.00;56.70
1175;DHT22;576;48.418;10.074;2023-07-22T07:26:59;27.00;56.90
1175;DHT22;576;48.418;10.074;2023-07-22T07:29:27;27.00;56.80
1175;DHT22;576;48.418;10.074;2023-07-22T07:31:58;27.10;56.90
1175;DHT22;576;48.418;10.074;2023-07-22T07:34:27;27.10;56.70
1175;DHT22;576;48.418;10.074;2023-07-22T07:36:55;27.10;56.70
1175;DHT22;576;48.418;10.074;2023-07-22T07:39:23;27.10;56.80
1175;DHT22;576;48.418;10.074;2023-07-22T07:41:54;27.10;56.70
1175;DHT22;576;48.418;10.074;2023-07-22T07:44:22;27.10;56.70
1175;DHT22;576;48.418;10.074;2023-07-22T07:46:50;27.10;56.70
1175;DHT22;576;48.418;10.074;2023-07-22T07:49:18;27.10;56.60
1175;DHT22;576;48.418;10.074;2023-07-22T07:51:47;27.10;56.60
1175;DHT22;576;48.418;10.074;2023-07-22T07:54:16;27.10;56.50
1175;DHT22;576;48.418;10.074;2023-07-22T07:56:44;27.10;56.60
1175;DHT22;576;48.418;10.074;2023-07-22T07:59:14;27.20;56.50
1175;DHT22;576;48.418;10.074;2023-07-22T08:01:42;27.20;56.50
1175;DHT22;576;48.418;10.074;2023-07-22T08:04:10;27.20;56.50
1175;DHT22;576;48.418;10.074;2023-07-22T08:06:39;27.20;56.40
1175;DHT22;576;48.418;10.074;2023-07-22T08:09:08;27.20;56.50
1175;DHT22;576;48.418;10.074;2023-07-22T08:11:38;27.20;56.50
1175;DHT22;576;48.418;10.074;2023-07-22T08:14:07;27.20;56.70
1175;DHT22;576;48.418;10.074;2023-07-22T08:16:37;27.20;56.60
1175;DHT22;576;48.418;10.074;2023-07-22T08:19:05;27.20;56.40
1175;DHT22;576;48.418;10.074;2023-07-22T08:21:33;27.20;56.50
1175;DHT22;576;48.418;10.074;2023-07-22T08:24:02;27.20;56.50
1175;DHT22;576;48.418;10.074;2023-07-22T08:26:30;27.20;56.40
1175;DHT22;576;48.418;10.074;2023-07-22T08:28:58;27.20;56.50
1175;DHT22;576;48.418;10.074;2023-07-22T08:31:26;27.20;56.50
1175;DHT22;576;48.418;10.074;2023-07-22T08:33:56;27.20;56.40
1175;DHT22;576;48.418;10.074;2023-07-22T08:36:24;27.20;56.50
1175;DHT22;576;48.418;10.074;2023-07-22T08:38:53;27.20;56.40
1175;DHT22;576;48.418;10.074;2023-07-22T08:41:21;27.20;56.50
1175;DHT22;576;48.418;10.074;2023-07-22T08:43:54;27.20;56.40
1175;DHT22;576;48.418;10.074;2023-07-22T08:46:23;27.20;56.40
1175;DHT22;576;48.418;10.074;2023-07-22T08:48:55;27.20;56.40
1175;DHT22;576;48.418;10.074;2023-07-22T08:51:25;27.20;56.40
1175;DHT22;576;48.418;10.074;2023-07-22T08:53:56;27.20;56.50
1175;DHT22;576;48.418;10.074;2023-07-22T08:56:37;27.20;56.40
1175;DHT22;576;48.418;10.074;2023-07-22T08:59:06;27.20;56.40
1175;DHT22;576;48.418;10.074;2023-07-22T09:01:34;27.30;56.30
1175;DHT22;576;48.418;10.074;2023-07-22T09:04:05;27.30;56.40
1175;DHT22;576;48.418;10.074;2023-07-22T09:06:34;27.20;56.30
1175;DHT22;576;48.418;10.074;2023-07-22T09:09:03;27.30;56.30
1175;DHT22;576;48.418;10.074;2023-07-22T09:11:35;27.30;56.30
1175;DHT22;576;48.418;10.074;2023-07-22T09:14:03;27.30;56.30
1175;DHT22;576;48.418;10.074;2023-07-22T09:16:32;27.30;56.40
1175;DHT22;576;48.418;10.074;2023-07-22T09:19:04;27.30;56.40
1175;DHT22;576;48.418;10.074;2023-07-22T09:21:33;27.30;56.30
1175;DHT22;576;48.418;10.074;2023-07-22T09:24:19;27.30;56.20
1175;DHT22;576;48.418;10.074;2023-07-22T09:26:49;27.30;56.20
1175;DHT22;576;48.418;10.074;2023-07-22T09:29:18;27.30;56.30
1175;DHT22;576;48.418;10.074;2023-07-22T09:31:50;27.30;56.30
1175;DHT22;576;48.418;10.074;2023-07-22T09:34:21;27.30;56.20
1175;DHT22;576;48.418;10.074;2023-07-22T09:36:56;27.30;56.40
1175;DHT22;576;48.418;10.074;2023-07-22T09:39:24;27.30;56.30
1175;DHT22;576;48.418;10.074;2023-07-22T09:41:53;27.30;56.40
1175;DHT22;576;48.418;10.074;2023-07-22T09:44:21;27.30;55.70
1175;DHT22;576;48.418;10.074;2023-07-22T09:46:50;27.30;55.80
1175;DHT22;576;48.418;10.074;2023-07-22T09:49:18;27.30;55.30
1175;DHT22;576;48.418;10.074;2023-07-22T09:51:50;27.30;55.50
1175;DHT22;576;48.418;10.074;2023-07-22T09:54:28;27.30;54.90
1175;DHT22;576;48.418;10.074;2023-07-22T09:56:58;27.30;54.60
1175;DHT22;576;48.418;10.074;2023-07-22T09:59:29;27.30;54.50
1175;DHT22;576;48.418;10.074;2023-07-22T10:01:59;27.30;54.70
1175;DHT22;576;48.418;10.074;2023-07-22T10:04:33;27.30;54.40
1175;DHT22;576;48.418;10.074;2023-07-22T10:07:06;27.40;54.40
1175;DHT22;576;48.418;10.074;2023-07-22T10:09:37;27.30;54.20
1175;DHT22;576;48.418;10.074;2023-07-22T10:12:07;27.40;54.50
1175;DHT22;576;48.418;10.074;2023-07-22T10:14:37;27.40;55.20
1175;DHT22;576;48.418;10.074;2023-07-22T10:17:06;27.40;55.00
1175;DHT22;576;48.418;10.074;2023-07-22T10:19:36;27.40;54.80
1175;DHT22;576;48.418;10.074;2023-07-22T10:22:07;27.40;54.40
1175;DHT22;576;48.418;10.074;2023-07-22T10:24:39;27.40;54.50
1175;DHT22;576;48.418;10.074;2023-07-22T10:27:09;27.40;54.30
1175;DHT22;576;48.418;10.074;2023-07-22T10:29:39;27.40;54.90
1175;DHT22;576;48.418;10.074;2023-07-22T10:32:08;27.40;54.60
1175;DHT22;576;48.418;10.074;2023-07-22T10:34:37;27.30;54.20
1175;DHT22;576;48.418;10.074;2023-07-22T10:37:10;27.30;54.40
1175;DHT22;576;48.418;10.074;2023-07-22T10:39:40;27.30;54.30
1175;DHT22;576;48.418;10.074;2023-07-22T10:42:09;27.30;54.80
1175;DHT22;576;48.418;10.074;2023-07-22T10:44:38;27.30;54.90
1175;DHT22;576;48.418;10.074;2023-07-22T10:47:08;27.40;54.30
1175;DHT22;576;48.418;10.074;2023-07-22T10:49:44;27.40;54.10
1175;DHT22;576;48.418;10.074;2023-07-22T10:52:15;27.40;54.20
1175;DHT22;576;48.418;10.074;2023-07-22T10:55:04;27.40;54.10
1175;DHT22;576;48.418;10.074;2023-07-22T10:57:48;27.40;54.20
1175;DHT22;576;48.418;10.074;2023-07-22T11:00:21;27.40;54.40
1175;DHT22;576;48.418;10.074;2023-07-22T11:03:10;27.40;54.50
1175;DHT22;576;48.418;10.074;2023-07-22T11:05:50;27.40;54.20
1175;DHT22;576;48.418;10.074;2023-07-22T11:08:36;27.40;54.40
1175;DHT22;576;48.418;10.074;2023-07-22T11:11:05;27.40;54.40
1175;DHT22;576;48.418;10.074;2023-07-22T11:13:37;27.40;54.40
1175;DHT22;576;48.418;10.074;2023-07-22T11:16:10;27.50;54.40
1175;DHT22;576;48.418;10.074;2023-07-22T11:18:39;27.50;54.30
1175;DHT22;576;48.418;10.074;2023-07-22T11:21:09;27.50;54.10
1175;DHT22;576;48.418;10.074;2023-07-22T11:23:39;27.50;54.20
1175;DHT22;576;48.418;10.074;2023-07-22T11:26:08;27.50;54.10
1175;DHT22;576;48.418;10.074;2023-07-22T11:28:37;27.50;53.90
1175;DHT22;576;48.418;10.074;2023-07-22T11:31:08;27.50;54.20
1175;DHT22;576;48.418;10.074;2023-07-22T11:33:39;27.50;54.00
1175;DHT22;576;48.418;10.074;2023-07-22T11:36:10;27.50;54.00
1175;DHT22;576;48.418;10.074;2023-07-22T11:38:39;27.50;54.00
1175;DHT22;576;48.418;10.074;2023-07-22T11:41:08;27.50;53.90
1175;DHT22;576;48.418;10.074;2023-07-22T11:43:38;27.50;54.00
1175;DHT22;576;48.418;10.074;2023-07-22T11:46:06;27.50;54.00
1175;DHT22;576;48.418;10.074;2023-07-22T11:48:35;27.50;54.00
1175;DHT22;576;48.418;10.074;2023-07-22T11:51:03;27.50;54.00
1175;DHT22;576;48.418;10.074;2023-07-22T11:53:32;27.50;54.00
1175;DHT22;576;48.418;10.074;2023-07-22T11:56:02;27.50;53.90
1175;DHT22;576;48.418;10.074;2023-07-22T11:58:31;27.50;53.90
1175;DHT22;576;48.418;10.074;2023-07-22T12:01:03;27.60;53.90
1175;DHT22;576;48.418;10.074;2023-07-22T12:03:33;27.60;53.90
1175;DHT22;576;48.418;10.074;2023-07-22T12:06:02;27.70;53.80
1175;DHT22;576;48.418;10.074;2023-07-22T12:08:31;27.80;53.60
1175;DHT22;576;48.418;10.074;2023-07-22T12:11:02;27.90;53.40
1175;DHT22;576;48.418;10.074;2023-07-22T12:13:36;28.20;53.00
1175;DHT22;576;48.418;10.074;2023-07-22T12:16:05;28.30;52.60
1175;DHT22;576;48.418;10.074;2023-07-22T12:18:43;28.30;52.70
1175;DHT22;576;48.418;10.074;2023-07-22T12:21:11;28.50;52.30
1175;DHT22;576;48.418;10.074;2023-07-22T12:23:41;28.70;52.00
1175;DHT22;576;48.418;10.074;2023-07-22T12:26:11;28.80;51.80
1175;DHT22;576;48.418;10.074;2023-07-22T12:28:39;28.90;51.50
1175;DHT22;576;48.418;10.074;2023-07-22T12:31:07;29.00;51.40
1175;DHT22;576;48.418;10.074;2023-07-22T12:33:36;29.00;51.30
1175;DHT22;576;48.418;10.074;2023-07-22T12:36:05;29.00;51.30
1175;DHT22;576;48.418;10.074;2023-07-22T12:38:33;28.90;51.40
1175;DHT22;576;48.418;10.074;2023-07-22T12:41:01;28.80;51.50
1175;DHT22;576;48.418;10.074;2023-07-22T12:43:31;28.70;51.60
1175;DHT22;576;48.418;10.074;2023-07-22T12:45:59;28.70;51.90
1175;DHT22;576;48.418;10.074;2023-07-22T12:48:27;28.60;51.80
1175;DHT22;576;48.418;10.074;2023-07-22T12:50:56;28.50;51.90
1175;DHT22;576;48.418;10.074;2023-07-22T12:53:24;28.30;52.10
1175;DHT22;576;48.418;10.074;2023-07-22T12:55:53;28.20;52.40
1175;DHT22;576;48.418;10.074;2023-07-22T12:58:21;28.10;52.60
1175;DHT22;576;48.418;10.074;2023-07-22T13:00:51;27.90;52.70
1175;DHT22;576;48.418;10.074;2023-07-22T13:03:19;27.90;53.00
1175;DHT22;576;48.418;10.074;2023-07-22T13:05:47;27.90;53.20
1175;DHT22;576;48.418;10.074;2023-07-22T13:08:15;27.80;53.10
1175;DHT22;576;48.418;10.074;2023-07-22T13:10:44;27.80;53.40
1175;DHT22;576;48.418;10.074;2023-07-22T13:13:14;27.80;53.20
1175;DHT22;576;48.418;10.074;2023-07-22T13:15:42;27.80;53.20
1175;DHT22;576;48.418;10.074;2023-07-22T13:18:11;27.80;53.30
1175;DHT22;576;48.418;10.074;2023-07-22T13:20:44;27.80;53.20
1175;DHT22;576;48.418;10.074;2023-07-22T13:23:12;27.80;53.20
1175;DHT22;576;48.418;10.074;2023-07-22T13:25:40;27.80;53.20
1175;DHT22;576;48.418;10.074;2023-07-22T13:28:09;27.80;53.30
1175;DHT22;576;48.418;10.074;2023-07-22T13:30:38;27.80;53.40
1175;DHT22;576;48.418;10.074;2023-07-22T13:33:06;27.70;53.40
1175;DHT22;576;48.418;10.074;2023-07-22T13:35:37;27.80;53.40
1175;DHT22;576;48.418;10.074;2023-07-22T13:38:05;27.80;53.40
1175;DHT22;576;48.418;10.074;2023-07-22T13:40:34;27.80;53.30
1175;DHT22;576;48.418;10.074;2023-07-22T13:43:04;27.90;53.20
1175;DHT22;576;48.418;10.074;2023-07-22T13:45:33;28.00;53.10
1175;DHT22;576;48.418;10.074;2023-07-22T13:48:02;28.10;53.00
1175;DHT22;576;48.418;10.074;2023-07-22T13:50:30;28.10;53.00
1175;DHT22;576;48.418;10.074;2023-07-22T13:53:04;28.20;52.80
1175;DHT22;576;48.418;10.074;2023-07-22T13:55:33;28.20;52.70
1175;DHT22;576;48.418;10.074;2023-07-22T13:58:01;28.30;52.70
1175;DHT22;576;48.418;10.074;2023-07-22T14:00:30;28.30;52.60
1175;DHT22;576;48.418;10.074;2023-07-22T14:02:59;28.30;52.50
1175;DHT22;576;48.418;10.074;2023-07-22T14:05:29;28.30;52.50
1175;DHT22;576;48.418;10.074;2023-07-22T14:07:58;28.30;52.50
1175;DHT22;576;48.418;10.074;2023-07-22T14:10:28;28.30;52.20
1175;DHT22;576;48.418;10.074;2023-07-22T14:12:57;28.20;52.20
1175;DHT22;576;48.418;10.074;2023-07-22T14:15:26;28.20;52.30
1175;DHT22;576;48.418;10.074;2023-07-22T14:17:54;28.20;52.20
1175;DHT22;576;48.418;10.074;2023-07-22T14:20:23;28.10;52.20
1175;DHT22;576;48.418;10.074;2023-07-22T14:22:51;28.10;52.50
1175;DHT22;576;48.418;10.074;2023-07-22T14:25:20;28.10;52.30
1175;DHT22;576;48.418;10.074;2023-07-22T14:27:49;28.10;52.60
1175;DHT22;576;48.418;10.074;2023-07-22T14:30:18;28.10;52.50
1175;DHT22;576;48.418;10.074;2023-07-22T14:32:46;28.10;52.40
1175;DHT22;576;48.418;10.074;2023-07-22T14:35:15;28.00;52.50
1175;DHT22;576;48.418;10.074;2023-07-22T14:37:44;28.00;52.50
1175;DHT22;576;48.418;10.074;2023-07-22T14:40:14;28.00;52.20
1175;DHT22;576;48.418;10.074;2023-07-22T14:42:42;28.00;51.70
1175;DHT22;576;48.418;10.074;2023-07-22T14:45:12;28.00;51.90
1175;DHT22;576;48.418;10.074;2023-07-22T14:47:41;28.00;51.80
1175;DHT22;576;48.418;10.074;2023-07-22T14:50:10;27.90;51.90
1175;DHT22;576;48.418;10.074;2023-07-22T14:52:40;27.90;51.90
1175;DHT22;576;48.418;10.074;2023-07-22T14:55:10;27.80;51.80
1175;DHT22;576;48.418;10.074;2023-07-22T14:57:39;27.80;51.90
1175;DHT22;576;48.418;10.074;2023-07-22T15:00:08;27.80;52.10
1175;DHT22;576;48.418;10.074;2023-07-22T15:02:39;27.80;52.10
1175;DHT22;576;48.418;10.074;2023-07-22T15:05:09;27.90;52.30
1175;DHT22;576;48.418;10.074;2023-07-22T15:07:38;27.90;52.30
1175;DHT22;576;48.418;10.074;2023-07-22T15:10:08;27.90;52.10
1175;DHT22;576;48.418;10.074;2023-07-22T15:12:37;28.00;52.00
1175;DHT22;576;48.418;10.074;2023-07-22T15:15:07;28.00;52.20
1175;DHT22;576;48.418;10.074;2023-07-22T15:17:36;28.00;52.00
1175;DHT22;576;48.418;10.074;2023-07-22T15:20:08;28.00;51.80
1175;DHT22;576;48.418;10.074;2023-07-22T15:22:37;28.00;51.90
1175;DHT22;576;48.418;10.074;2023-07-22T15:25:06;27.90;51.90
1175;DHT22;576;48.418;10.074;2023-07-22T15:27:34;27.90;52.10
1175;DHT22;576;48.418;10.074;2023-07-22T15:30:04;27.90;52.20
1175;DHT22;576;48.418;10.074;2023-07-22T15:32:33;27.90;52.20
1175;DHT22;576;48.418;10.074;2023-07-22T15:35:02;27.90;52.20
1175;DHT22;576;48.418;10.074;2023-07-22T15:37:32;27.90;52.30
1175;DHT22;576;48.418;10.074;2023-07-22T15:40:01;27.90;52.10
1175;DHT22;576;48.418;10.074;2023-07-22T15:42:29;27.90;52.00
1175;DHT22;576;48.418;10.074;2023-07-22T15:44:58;27.90;52.20
1175;DHT22;576;48.418;10.074;2023-07-22T15:47:26;27.90;52.10
1175;DHT22;576;48.418;10.074;2023-07-22T15:49:54;28.00;52.20
1175;DHT22;576;48.418;10.074;2023-07-22T15:52:22;28.00;52.00
1175;DHT22;576;48.418;10.074;2023-07-22T15:54:52;27.90;51.80
1175;DHT22;576;48.418;10.074;2023-07-22T15:57:20;27.90;51.90
1175;DHT22;576;48.418;10.074;2023-07-22T15:59:49;27.90;51.80
1175;DHT22;576;48.418;10.074;2023-07-22T16:02:17;27.90;51.90
1175;DHT22;576;48.418;10.074;2023-07-22T16:04:45;27.90;51.90
1175;DHT22;576;48.418;10.074;2023-07-22T16:07:14;27.90;51.90
1175;DHT22;576;48.418;10.074;2023-07-22T16:09:42;27.90;51.60
1175;DHT22;576;48.418;10.074;2023-07-22T16:12:12;27.80;51.40
1175;DHT22;576;48.418;10.074;2023-07-22T16:14:40;27.80;51.10